Time;durP1;ratioP1;P1;durP2;ratioP2;P2;SDS_P1;SDS_P2;PMS_P1;PMS_P2;Temp;Humidity;BMP_temperature;BMP_pressure;BME280_temperature;BME280_humidity;BME280_pressure;Samples;Min_cycle;Max_cycle;Signal;HPM_P1;HPM_P2
2022/05/20 00:00:04;;;;;;;5.83;4.00;;;18.30;97.30;;;;;;4998323;28;20174;-81
2022/05/20 00:02:29;;;;;;;6.80;4.20;;;18.30;97.30;;;;;;4996603;28;20212;-81
2022/05/20 00:04:55;;;;;;;10.17;4.40;;;18.30;97.30;;;;;;4995945;28;21069;-82
2022/05/20 00:07:20;;;;;;;5.00;3.63;;;18.30;97.30;;;;;;4996967;28;20659;-81
2022/05/20 00:09:46;;;;;;;6.77;4.43;;;18.20;97.30;;;;;;4996423;28;20181;-80
2022/05/20 00:12:12;;;;;;;5.93;3.90;;;18.20;97.30;;;;;;4995968;28;20209;-81
2022/05/20 00:14:37;;;;;;;6.03;4.10;;;18.10;97.30;;;;;;4996242;28;20186;-82
2022/05/20 00:17:05;;;;;;;5.20;3.40;;;18.10;97.30;;;;;;4996442;28;20212;-80
2022/05/20 00:19:32;;;;;;;10.33;3.80;;;18.00;97.30;;;;;;4995562;28;20182;-82
2022/05/20 00:21:57;;;;;;;5.60;4.00;;;18.00;97.30;;;;;;4996222;28;20837;-82
2022/05/20 00:24:23;;;;;;;7.07;3.97;;;18.00;97.30;;;;;;4995708;28;20474;-80
2022/05/20 00:26:50;;;;;;;7.30;4.07;;;17.90;97.30;;;;;;4996949;28;20572;-80
2022/05/20 00:29:16;;;;;;;6.87;3.50;;;17.90;97.30;;;;;;4996477;28;20599;-79
2022/05/20 00:31:42;;;;;;;7.17;3.80;;;17.90;97.30;;;;;;4995879;28;20523;-80
2022/05/20 00:34:07;;;;;;;7.73;4.10;;;17.90;97.30;;;;;;4997297;28;20417;-81
2022/05/20 00:36:33;;;;;;;7.27;3.70;;;17.90;97.30;;;;;;4995828;28;20206;-81
2022/05/20 00:38:58;;;;;;;6.60;3.80;;;17.90;97.30;;;;;;4995671;28;20181;-79
2022/05/20 00:41:24;;;;;;;5.10;3.67;;;17.90;97.30;;;;;;4991950;28;20178;-79
2022/05/20 00:43:50;;;;;;;6.73;4.23;;;17.90;97.30;;;;;;4994247;28;20170;-78
2022/05/20 00:46:22;;;;;;;6.60;4.50;;;17.80;97.30;;;;;;4992802;28;20719;-79
2022/05/20 00:48:54;;;;;;;6.33;4.10;;;17.80;97.30;;;;;;4992573;28;20421;-79
2022/05/20 00:51:50;;;;;;;9.20;4.63;;;17.80;97.30;;;;;;4993440;28;21209;-78
2022/05/20 00:54:26;;;;;;;6.33;4.60;;;17.70;97.30;;;;;;4980774;28;20428;-80
2022/05/20 00:57:04;;;;;;;8.13;4.87;;;17.70;97.30;;;;;;4991450;28;20950;-78
2022/05/20 00:59:33;;;;;;;6.47;4.23;;;17.70;97.30;;;;;;4991301;28;20420;-79
2022/05/20 01:02:07;;;;;;;10.23;5.40;;;17.70;97.30;;;;;;4990955;28;20760;-78
2022/05/20 01:04:33;;;;;;;10.23;4.87;;;17.70;97.30;;;;;;4991962;28;20866;-80
2022/05/20 01:06:59;;;;;;;6.70;4.60;;;17.70;97.30;;;;;;4992822;28;20445;-77
2022/05/20 01:09:25;;;;;;;8.50;4.60;;;17.70;97.30;;;;;;4991429;28;20425;-80
2022/05/20 01:11:51;;;;;;;6.93;4.20;;;17.70;97.30;;;;;;4991182;28;20253;-78
2022/05/20 01:14:25;;;;;;;7.20;3.70;;;17.70;97.30;;;;;;4992377;28;20192;-79
2022/05/20 01:16:51;;;;;;;7.63;4.37;;;17.70;97.30;;;;;;4993912;28;20456;-79
2022/05/20 01:19:39;;;;;;;5.97;3.90;;;17.60;97.30;;;;;;4993429;28;20500;-78
2022/05/20 01:22:08;;;;;;;8.07;3.50;;;17.60;97.30;;;;;;4992264;28;20483;-78
2022/05/20 01:24:34;;;;;;;5.90;3.60;;;17.60;97.30;;;;;;4991758;28;20469;-77
2022/05/20 01:26:59;;;;;;;5.97;3.70;;;17.60;97.30;;;;;;4991961;28;20445;-79
2022/05/20 01:29:26;;;;;;;6.27;3.77;;;17.60;97.30;;;;;;4992819;28;20564;-78
2022/05/20 01:31:52;;;;;;;6.77;3.80;;;17.50;97.30;;;;;;4991654;28;20201;-78
2022/05/20 01:34:18;;;;;;;6.47;3.90;;;17.50;97.30;;;;;;4990526;28;20428;-77
2022/05/20 01:36:44;;;;;;;6.13;3.70;;;17.50;97.30;;;;;;4992057;28;20445;-79
2022/05/20 01:39:09;;;;;;;4.93;3.93;;;17.50;97.30;;;;;;4991797;28;20542;-79
2022/05/20 01:41:54;;;;;;;4.40;3.70;;;17.50;97.30;;;;;;4992938;28;20433;-79
2022/05/20 01:44:29;;;;;;;8.07;4.33;;;17.50;97.30;;;;;;4992968;28;20182;-80
2022/05/20 01:47:13;;;;;;;7.00;4.00;;;17.50;97.30;;;;;;4992882;28;20444;-80
2022/05/20 01:49:51;;;;;;;7.20;3.93;;;17.50;97.30;;;;;;4993635;28;20906;-78
2022/05/20 01:52:37;;;;;;;5.80;3.70;;;17.50;97.30;;;;;;4992058;28;20453;-78
2022/05/20 01:55:20;;;;;;;5.90;4.43;;;17.50;97.30;;;;;;4994070;28;20759;-79
2022/05/20 01:58:04;;;;;;;7.00;4.37;;;17.50;97.30;;;;;;4997711;28;20391;-80
2022/05/20 02:00:32;;;;;;;5.40;4.30;;;17.40;97.30;;;;;;4997814;28;20496;-79
2022/05/20 02:03:19;;;;;;;6.10;4.00;;;17.40;97.30;;;;;;4998368;28;20926;-80
2022/05/20 02:06:04;;;;;;;5.23;3.93;;;17.40;97.30;;;;;;4997491;28;20477;-81
2022/05/20 02:08:37;;;;;;;5.77;4.20;;;17.40;97.30;;;;;;4998123;28;21050;-79
2022/05/20 02:11:17;;;;;;;5.67;3.90;;;17.30;97.30;;;;;;4998791;28;20401;-82
2022/05/20 02:13:50;;;;;;;5.10;3.90;;;17.30;97.30;;;;;;4997841;28;20448;-81
2022/05/20 02:16:26;;;;;;;5.63;4.10;;;17.20;97.30;;;;;;4998551;28;20424;-82
2022/05/20 02:18:59;;;;;;;6.00;4.30;;;17.20;97.30;;;;;;4997026;28;20393;-81
2022/05/20 02:21:28;;;;;;;14.80;4.37;;;17.20;97.30;;;;;;4998222;28;20430;-80
2022/05/20 02:23:58;;;;;;;8.00;3.87;;;17.10;97.30;;;;;;4997578;28;20417;-80
2022/05/20 02:26:27;;;;;;;5.23;3.90;;;17.00;97.30;;;;;;4997170;28;20567;-79
2022/05/20 02:29:00;;;;;;;7.00;4.07;;;17.00;97.30;;;;;;4996865;28;20938;-79
2022/05/20 02:31:56;;;;;;;7.90;3.83;;;17.00;97.30;;;;;;4996865;28;20417;-79
2022/05/20 02:34:21;;;;;;;7.23;3.70;;;17.00;97.30;;;;;;4996712;28;20540;-82
2022/05/20 02:36:47;;;;;;;5.30;4.00;;;17.00;97.30;;;;;;4998203;28;20481;-81
2022/05/20 02:39:16;;;;;;;8.27;4.67;;;17.00;97.30;;;;;;4998511;28;20409;-81
2022/05/20 02:41:43;;;;;;;7.27;3.90;;;17.00;97.30;;;;;;4996907;28;20655;-81
2022/05/20 02:44:09;;;;;;;7.80;4.30;;;17.00;97.30;;;;;;4994430;28;20765;-77
2022/05/20 02:46:36;;;;;;;5.67;4.40;;;17.00;97.30;;;;;;4993736;28;20455;-78
2022/05/20 02:49:02;;;;;;;10.37;4.00;;;17.00;97.30;;;;;;4993399;28;20193;-79
2022/05/20 02:51:28;;;;;;;10.87;4.00;;;17.00;97.30;;;;;;4995534;28;20417;-79
2022/05/20 02:53:53;;;;;;;7.00;4.50;;;16.90;97.30;;;;;;4994677;28;20208;-79
2022/05/20 02:56:19;;;;;;;8.90;4.10;;;17.00;97.30;;;;;;4995148;28;20205;-79
2022/05/20 03:04:13;;;;;;;6.93;4.00;;;16.90;97.30;;;;;;4995292;28;20944;-78
2022/05/20 03:06:41;;;;;;;5.87;4.27;;;16.90;97.30;;;;;;4993276;28;20464;-78
2022/05/20 03:09:09;;;;;;;8.20;4.73;;;16.90;97.30;;;;;;4993434;28;20544;-78
2022/05/20 03:11:35;;;;;;;6.90;4.53;;;16.90;97.30;;;;;;4993510;28;20560;-79
2022/05/20 03:14:03;;;;;;;7.83;4.50;;;16.90;97.30;;;;;;4993082;28;20414;-79
2022/05/20 03:16:29;;;;;;;8.50;5.33;;;16.90;97.30;;;;;;4994076;28;20432;-77
2022/05/20 03:18:54;;;;;;;6.10;4.20;;;16.90;97.30;;;;;;4993415;28;20418;-79
2022/05/20 03:21:20;;;;;;;8.60;4.00;;;16.80;97.30;;;;;;4994142;28;20170;-79
2022/05/20 03:23:46;;;;;;;6.30;4.70;;;16.80;97.30;;;;;;4994686;28;20185;-78
2022/05/20 03:26:11;;;;;;;8.00;4.57;;;16.80;97.30;;;;;;4994164;28;20234;-79
2022/05/20 03:28:37;;;;;;;8.10;4.63;;;16.80;97.30;;;;;;4994552;28;20693;-79
2022/05/20 03:31:07;;;;;;;6.70;4.60;;;16.80;97.30;;;;;;4994017;28;20265;-78
2022/05/20 03:33:34;;;;;;;5.87;4.63;;;16.80;97.30;;;;;;4994471;28;20589;-79
2022/05/20 03:36:00;;;;;;;7.30;4.97;;;16.80;97.30;;;;;;4995249;28;20869;-80
2022/05/20 03:38:26;;;;;;;5.90;4.37;;;16.80;97.30;;;;;;4993651;28;20425;-79
2022/05/20 03:40:51;;;;;;;7.03;4.70;;;16.80;97.30;;;;;;4993262;28;20527;-78
2022/05/20 03:43:17;;;;;;;8.20;4.43;;;16.90;97.30;;;;;;4992677;28;20184;-77
2022/05/20 03:45:43;;;;;;;7.47;4.80;;;16.90;97.30;;;;;;4992265;28;20213;-78
2022/05/20 03:48:09;;;;;;;6.63;4.60;;;16.90;97.30;;;;;;4992170;28;20192;-78
2022/05/20 03:50:35;;;;;;;8.40;4.93;;;16.90;97.30;;;;;;4993330;28;20193;-78
2022/05/20 03:53:01;;;;;;;7.97;5.20;;;16.80;97.30;;;;;;4991947;28;20461;-79
2022/05/20 03:55:27;;;;;;;8.90;5.20;;;16.80;97.30;;;;;;4993965;28;20300;-78
2022/05/20 03:57:53;;;;;;;7.50;4.83;;;16.80;97.30;;;;;;4992937;28;20205;-78
2022/05/20 04:00:19;;;;;;;9.40;4.70;;;16.80;97.30;;;;;;4992649;28;20421;-78
2022/05/20 04:02:44;;;;;;;8.80;4.33;;;16.80;97.30;;;;;;4994918;28;20575;-79
2022/05/20 04:05:10;;;;;;;7.90;4.60;;;16.80;97.30;;;;;;4996748;28;20441;-83
2022/05/20 04:07:38;;;;;;;8.33;5.33;;;16.80;97.30;;;;;;4993714;28;20181;-80
2022/05/20 04:10:04;;;;;;;10.40;5.07;;;16.80;97.30;;;;;;4995715;28;20571;-81
2022/05/20 04:12:40;;;;;;;8.43;5.13;;;16.80;97.30;;;;;;4996096;28;20978;-81
2022/05/20 04:15:12;;;;;;;7.33;4.70;;;16.80;97.30;;;;;;4993614;28;20626;-80
2022/05/20 04:17:38;;;;;;;7.70;6.00;;;16.80;97.30;;;;;;4991920;28;20895;-80
2022/05/20 04:20:06;;;;;;;11.43;6.10;;;16.90;97.30;;;;;;4992219;28;20424;-79
2022/05/20 04:22:36;;;;;;;11.00;6.77;;;16.90;97.30;;;;;;4992367;28;20562;-78
2022/05/20 04:25:04;;;;;;;9.77;5.57;;;16.90;97.30;;;;;;4994479;28;20471;-79
2022/05/20 04:27:30;;;;;;;8.60;5.60;;;16.90;97.30;;;;;;4994744;28;20416;-79
2022/05/20 04:29:57;;;;;;;11.27;5.60;;;17.00;97.30;;;;;;4994057;28;20417;-79
2022/05/20 04:32:23;;;;;;;6.10;4.77;;;17.00;97.30;;;;;;4993532;28;20827;-82
2022/05/20 04:34:49;;;;;;;8.80;5.40;;;17.00;97.30;;;;;;4996614;28;20564;-81
2022/05/20 04:37:15;;;;;;;9.57;6.20;;;17.00;97.30;;;;;;4996943;28;20478;-81
2022/05/20 04:39:41;;;;;;;8.03;5.63;;;17.10;97.30;;;;;;4996163;28;20178;-81
2022/05/20 04:47:39;;;;;;;10.90;5.40;;;17.10;97.30;;;;;;4996709;28;20924;-79
2022/05/20 04:50:06;;;;;;;11.17;5.60;;;17.10;97.30;;;;;;4995354;28;20496;-79
2022/05/20 04:52:31;;;;;;;9.63;5.50;;;17.10;97.30;;;;;;4993185;28;20210;-79
2022/05/20 04:54:57;;;;;;;9.93;5.93;;;17.10;97.30;;;;;;4993217;28;20424;-79
2022/05/20 04:57:34;;;;;;;8.30;4.80;;;17.20;97.30;;;;;;4991490;28;20178;-79
2022/05/20 05:00:20;;;;;;;13.73;5.33;;;17.20;97.30;;;;;;4991923;28;20545;-79
2022/05/20 05:02:47;;;;;;;10.60;5.53;;;17.20;97.30;;;;;;4992175;28;20431;-79
2022/05/20 05:05:19;;;;;;;11.53;5.63;;;17.30;97.30;;;;;;4992104;28;20718;-82
2022/05/20 05:07:47;;;;;;;8.00;5.50;;;17.40;97.30;;;;;;4992013;28;20413;-79
2022/05/20 05:10:15;;;;;;;5.70;4.63;;;17.40;97.30;;;;;;4991907;28;20452;-80
2022/05/20 05:12:41;;;;;;;8.57;4.73;;;17.40;97.30;;;;;;4992045;28;20456;-79
2022/05/20 05:15:07;;;;;;;10.90;5.27;;;17.40;97.30;;;;;;4993965;28;20417;-80
2022/05/20 05:20:25;;;;;;;6.03;4.73;;;17.40;97.30;;;;;;4993357;28;20463;-79
2022/05/20 05:22:53;;;;;;;8.30;4.93;;;17.40;97.30;;;;;;4992182;28;20475;-80
2022/05/20 05:25:21;;;;;;;11.40;5.83;;;17.40;97.30;;;;;;4992359;28;20472;-79
2022/05/20 05:27:48;;;;;;;8.40;5.60;;;17.40;97.30;;;;;;4992292;28;20439;-80
2022/05/20 05:30:15;;;;;;;7.90;4.77;;;17.50;97.30;;;;;;4991758;28;20425;-79
2022/05/20 05:32:41;;;;;;;11.67;5.93;;;17.50;97.30;;;;;;4992689;28;20495;-80
2022/05/20 05:35:10;;;;;;;12.00;5.63;;;17.50;97.30;;;;;;4992612;28;20416;-80
2022/05/20 05:37:37;;;;;;;13.07;5.30;;;17.60;97.30;;;;;;4992377;28;20425;-79
2022/05/20 05:40:04;;;;;;;8.77;5.13;;;17.70;97.30;;;;;;4993588;28;20425;-79
2022/05/20 05:42:30;;;;;;;7.50;5.00;;;17.70;97.30;;;;;;4992513;28;20769;-80
2022/05/20 05:44:56;;;;;;;19.13;6.20;;;17.80;97.30;;;;;;4992982;28;20405;-80
2022/05/20 05:47:22;;;;;;;8.87;5.63;;;17.80;97.30;;;;;;4992572;28;20181;-80
2022/05/20 05:49:47;;;;;;;8.00;5.70;;;17.90;97.30;;;;;;4991912;28;20443;-80
2022/05/20 05:52:13;;;;;;;9.03;5.30;;;18.00;97.30;;;;;;4993693;28;20460;-79
2022/05/20 05:54:39;;;;;;;8.33;6.33;;;18.00;97.30;;;;;;4992226;28;20174;-79
2022/05/20 05:57:04;;;;;;;7.47;4.63;;;18.10;97.30;;;;;;4992576;28;20330;-80
2022/05/20 05:59:31;;;;;;;16.23;7.37;;;18.10;97.30;;;;;;4992131;28;20289;-79
2022/05/20 06:02:01;;;;;;;11.80;5.93;;;18.10;97.30;;;;;;4991767;28;20185;-80
2022/05/20 06:04:27;;;;;;;8.63;5.87;;;18.20;97.30;;;;;;4993152;28;21100;-80
2022/05/20 06:06:54;;;;;;;10.30;6.10;;;18.30;97.30;;;;;;4992080;28;20464;-79
2022/05/20 06:09:21;;;;;;;8.33;5.43;;;18.30;97.30;;;;;;4992221;28;20512;-80
2022/05/20 06:11:47;;;;;;;10.77;6.30;;;18.40;97.30;;;;;;4992275;28;20291;-80
2022/05/20 06:14:12;;;;;;;10.20;6.30;;;18.40;97.30;;;;;;4993944;28;20825;-80
2022/05/20 06:16:38;;;;;;;10.97;6.03;;;18.40;97.30;;;;;;4992711;28;20194;-80
2022/05/20 06:19:04;;;;;;;10.60;6.67;;;18.50;97.30;;;;;;4992745;28;20181;-80
2022/05/20 06:21:30;;;;;;;11.40;6.37;;;18.50;97.30;;;;;;4992595;28;20793;-80
2022/05/20 06:23:56;;;;;;;8.70;6.37;;;18.60;97.30;;;;;;4993065;28;20228;-80
2022/05/20 06:26:21;;;;;;;9.30;6.13;;;18.60;97.30;;;;;;4992484;28;20775;-80
2022/05/20 06:28:47;;;;;;;12.23;6.90;;;18.70;97.30;;;;;;4992057;28;20272;-80
2022/05/20 06:31:13;;;;;;;10.30;6.00;;;18.70;97.30;;;;;;4993654;28;20544;-80
2022/05/20 06:33:38;;;;;;;9.17;5.93;;;18.80;97.30;;;;;;4992607;28;20265;-80
2022/05/20 06:41:33;;;;;;;8.83;6.67;;;18.80;97.30;;;;;;4997011;28;20460;-80
2022/05/20 06:43:58;;;;;;;12.60;6.90;;;18.80;97.30;;;;;;4997556;28;20409;-80
2022/05/20 06:46:25;;;;;;;9.50;6.40;;;18.80;97.30;;;;;;4995624;28;20823;-80
2022/05/20 06:48:53;;;;;;;12.20;7.60;;;18.80;97.30;;;;;;4996507;28;20173;-79
2022/05/20 06:51:22;;;;;;;13.97;8.57;;;18.90;97.30;;;;;;4995309;28;20504;-80
2022/05/20 06:53:48;;;;;;;10.00;7.17;;;18.90;97.30;;;;;;4995246;28;20436;-80
2022/05/20 06:56:15;;;;;;;10.60;7.40;;;19.00;97.30;;;;;;4995544;28;20437;-80
2022/05/20 06:58:41;;;;;;;9.83;7.43;;;19.00;97.30;;;;;;4995751;28;20206;-80
2022/05/20 07:01:07;;;;;;;11.27;7.90;;;19.10;97.30;;;;;;4995659;28;20421;-80
2022/05/20 07:03:33;;;;;;;19.03;7.50;;;19.10;97.30;;;;;;4995425;28;20455;-80
2022/05/20 07:05:59;;;;;;;13.80;7.80;;;19.20;97.30;;;;;;4995251;28;20193;-78
2022/05/20 07:08:24;;;;;;;11.53;7.33;;;19.30;97.30;;;;;;4995261;28;20178;-79
2022/05/20 07:10:50;;;;;;;16.17;7.77;;;19.40;97.30;;;;;;4995454;28;20182;-79
2022/05/20 07:13:16;;;;;;;11.50;8.23;;;19.40;97.30;;;;;;4995062;28;20201;-80
2022/05/20 07:15:41;;;;;;;13.83;7.50;;;19.40;97.30;;;;;;4995171;28;20441;-79
2022/05/20 07:18:08;;;;;;;11.27;7.50;;;19.50;97.30;;;;;;4994792;28;20177;-80
2022/05/20 07:20:33;;;;;;;10.23;7.20;;;19.60;97.30;;;;;;4994400;28;20170;-80
2022/05/20 07:22:59;;;;;;;19.87;7.77;;;19.70;97.30;;;;;;4994696;28;20452;-81
2022/05/20 07:25:25;;;;;;;12.90;7.20;;;19.80;97.30;;;;;;4994833;28;20229;-79
2022/05/20 07:27:50;;;;;;;14.13;7.00;;;19.90;97.30;;;;;;4994098;28;20185;-80
2022/05/20 07:30:16;;;;;;;12.20;7.57;;;20.00;97.30;;;;;;4994729;28;20931;-80
2022/05/20 07:32:42;;;;;;;11.43;8.23;;;20.00;97.30;;;;;;4994312;28;20221;-79
2022/05/20 07:35:11;;;;;;;9.40;7.27;;;20.10;97.30;;;;;;4994041;28;20679;-80
2022/05/20 07:37:37;;;;;;;11.37;6.73;;;20.10;97.30;;;;;;4994282;28;20659;-79
2022/05/20 07:40:03;;;;;;;13.77;8.43;;;20.20;97.30;;;;;;4994211;28;20471;-79
2022/05/20 07:42:29;;;;;;;11.20;7.40;;;20.30;97.30;;;;;;4994159;28;20272;-79
2022/05/20 07:44:55;;;;;;;11.47;7.00;;;20.40;97.30;;;;;;4994491;28;20436;-80
2022/05/20 07:47:22;;;;;;;13.73;6.80;;;20.50;97.30;;;;;;4995036;28;20177;-79
2022/05/20 07:49:48;;;;;;;10.90;7.60;;;20.50;97.30;;;;;;4994670;28;20174;-80
2022/05/20 07:53:19;;;;;;;9.90;6.87;;;20.50;97.30;;;;;;4993827;28;20544;-80
2022/05/20 07:55:03;;;;;;;13.77;6.80;;;20.60;97.30;;;;;;4995815;28;20657;-79
2022/05/20 07:57:29;;;;;;;13.53;6.93;;;20.80;97.30;;;;;;4994032;28;20945;-80
2022/05/20 07:59:55;;;;;;;8.77;6.40;;;20.80;97.30;;;;;;4993702;28;20967;-80
2022/05/20 08:02:26;;;;;;;12.53;7.77;;;20.90;97.30;;;;;;4994128;28;20467;-78
2022/05/20 08:04:56;;;;;;;11.13;7.30;;;21.00;97.30;;;;;;4993951;28;20232;-80
2022/05/20 08:07:31;;;;;;;12.33;7.43;;;21.10;97.30;;;;;;4994074;28;20472;-80
2022/05/20 08:09:58;;;;;;;14.33;8.23;;;21.20;97.30;;;;;;4994089;28;20449;-79
2022/05/20 08:12:24;;;;;;;12.23;7.60;;;21.30;97.30;;;;;;4995461;28;20906;-80
2022/05/20 08:14:49;;;;;;;15.70;8.40;;;21.30;97.30;;;;;;4994073;28;20496;-79
2022/05/20 08:17:15;;;;;;;12.67;8.50;;;21.30;97.30;;;;;;4994168;28;20197;-80
2022/05/20 08:19:41;;;;;;;14.43;7.97;;;21.30;97.30;;;;;;4995868;28;20559;-80
2022/05/20 08:22:07;;;;;;;10.53;7.40;;;21.30;97.30;;;;;;4994704;28;20200;-80
2022/05/20 08:24:32;;;;;;;17.60;9.70;;;21.30;97.30;;;;;;4994527;28;20461;-81
2022/05/20 08:26:58;;;;;;;16.83;8.67;;;21.40;97.30;;;;;;4993488;28;20198;-80
2022/05/20 08:29:24;;;;;;;15.63;9.87;;;21.50;97.30;;;;;;4995572;28;20169;-81
2022/05/20 08:31:50;;;;;;;13.97;9.30;;;21.50;97.30;;;;;;4995517;28;20201;-80
2022/05/20 08:34:16;;;;;;;15.00;8.93;;;21.50;97.30;;;;;;4996575;28;20177;-81
2022/05/20 08:36:42;;;;;;;11.83;8.00;;;21.50;97.30;;;;;;4993822;28;20441;-82
2022/05/20 08:39:12;;;;;;;17.83;9.90;;;21.50;97.30;;;;;;4994517;28;20210;-81
2022/05/20 08:41:41;;;;;;;16.03;10.03;;;21.50;97.30;;;;;;4994689;28;20938;-81
2022/05/20 08:44:13;;;;;;;18.13;10.03;;;21.50;97.30;;;;;;4996324;28;20452;-80
2022/05/20 08:46:40;;;;;;;15.47;10.23;;;21.50;97.30;;;;;;4993871;28;20445;-79
2022/05/20 08:49:10;;;;;;;10.70;8.60;;;21.50;97.30;;;;;;4993267;28;20421;-80
2022/05/20 08:51:39;;;;;;;15.40;9.67;;;21.60;97.30;;;;;;4993988;28;20423;-81
2022/05/20 08:54:05;;;;;;;14.67;9.50;;;21.70;97.30;;;;;;4993634;28;20428;-82
2022/05/20 08:56:31;;;;;;;14.30;9.70;;;21.70;97.30;;;;;;4992998;28;20436;-82
2022/05/20 08:59:00;;;;;;;18.17;11.50;;;21.80;97.30;;;;;;4994246;28;20409;-82
2022/05/20 09:01:35;;;;;;;15.00;9.93;;;21.80;97.30;;;;;;4993234;28;20170;-81
2022/05/20 09:04:01;;;;;;;17.50;13.00;;;21.70;97.30;;;;;;4993443;28;20413;-82
2022/05/20 09:06:28;;;;;;;17.93;12.27;;;21.80;97.30;;;;;;4992557;28;20954;-82
2022/05/20 09:09:07;;;;;;;18.10;11.57;;;21.80;97.30;;;;;;4992560;28;20515;-82
2022/05/20 09:11:33;;;;;;;20.10;12.70;;;21.90;97.30;;;;;;4992255;28;20424;-82
2022/05/20 09:17:12;;;;;;;19.80;13.80;;;21.90;97.30;;;;;;4994511;28;20213;-82
2022/05/20 09:20:01;;;;;;;17.47;13.43;;;21.90;97.30;;;;;;5008877;28;20405;-83
2022/05/20 09:22:35;;;;;;;15.93;11.10;;;21.90;97.30;;;;;;4993085;28;20436;-82
2022/05/20 09:25:02;;;;;;;14.30;10.97;;;21.90;97.30;;;;;;4992852;28;20543;-82
2022/05/20 09:27:32;;;;;;;19.97;13.53;;;22.00;97.30;;;;;;4992946;28;20424;-82
2022/05/20 09:30:00;;;;;;;20.47;14.67;;;22.00;97.30;;;;;;4993606;28;20913;-83
2022/05/20 09:32:36;;;;;;;15.53;12.23;;;22.00;97.30;;;;;;4992736;28;20511;-82
2022/05/20 09:35:14;;;;;;;18.50;13.00;;;22.10;97.30;;;;;;4993024;28;20451;-82
2022/05/20 09:37:40;;;;;;;24.67;15.13;;;22.10;97.30;;;;;;4994188;28;20765;-83
2022/05/20 09:40:38;;;;;;;18.70;12.80;;;22.10;97.30;;;;;;4992588;28;20479;-82
2022/05/20 09:43:08;;;;;;;19.33;12.60;;;22.20;97.30;;;;;;4992723;28;20421;-82
2022/05/20 09:45:44;;;;;;;22.90;13.20;;;22.40;97.30;;;;;;4992099;28;20467;-82
2022/05/20 09:48:13;;;;;;;24.60;13.87;;;22.50;97.30;;;;;;4992858;28;20416;-83
2022/05/20 09:50:39;;;;;;;21.37;13.23;;;22.60;97.30;;;;;;4992269;28;20437;-83
2022/05/20 09:53:21;;;;;;;22.90;13.60;;;22.60;97.30;;;;;;4992657;28;20475;-82
2022/05/20 09:55:47;;;;;;;23.33;15.10;;;22.80;97.30;;;;;;4992975;28;20205;-85
2022/05/20 09:58:21;;;;;;;23.43;14.77;;;22.90;96.30;;;;;;4992419;28;20425;-82
2022/05/20 10:01:10;;;;;;;18.87;13.97;;;23.00;97.30;;;;;;4992193;28;20240;-82
2022/05/20 10:03:44;;;;;;;22.10;15.23;;;23.10;97.30;;;;;;4993988;28;20993;-83
2022/05/20 10:06:15;;;;;;;21.80;15.10;;;23.30;96.60;;;;;;4992881;28;20468;-83
2022/05/20 10:08:59;;;;;;;17.80;13.40;;;23.40;96.20;;;;;;4993039;28;20427;-82
2022/05/20 10:11:32;;;;;;;20.20;12.93;;;23.50;96.50;;;;;;4994768;28;20471;-83
2022/05/20 10:14:00;;;;;;;21.77;12.53;;;23.50;94.00;;;;;;4993038;28;20433;-83
2022/05/20 10:16:55;;;;;;;16.27;11.87;;;23.60;95.00;;;;;;4995692;28;20566;-83
2022/05/20 10:19:42;;;;;;;25.07;15.30;;;23.60;94.00;;;;;;4998092;28;20464;-82
2022/05/20 10:22:43;;;;;;;21.10;14.43;;;23.70;94.10;;;;;;4997246;28;20421;-82
2022/05/20 10:25:31;;;;;;;19.00;14.20;;;23.80;96.60;;;;;;4998249;28;20984;-83
2022/05/20 10:34:10;;;;;;;18.87;13.10;;;24.20;93.50;;;;;;4998188;28;20436;-83
2022/05/20 10:37:01;;;;;;;19.40;13.30;;;24.30;93.40;;;;;;4997020;28;20443;-83
2022/05/20 10:40:13;;;;;;;22.83;13.00;;;24.40;92.90;;;;;;4997133;28;20439;-83
2022/05/20 10:43:00;;;;;;;16.97;13.00;;;24.50;92.40;;;;;;4983636;28;20431;-84
2022/05/20 10:49:06;;;;;;;14.97;11.60;;;24.70;94.70;;;;;;4997816;28;20412;-82
2022/05/20 10:51:51;;;;;;;17.33;11.67;;;24.80;94.00;;;;;;4939738;29;20457;-83
2022/05/20 10:54:30;;;;;;;15.63;11.33;;;24.80;92.70;;;;;;5000099;28;20444;-81
2022/05/20 10:57:10;;;;;;;16.27;11.50;;;24.80;92.10;;;;;;4998515;28;20432;-81
2022/05/20 11:00:00;;;;;;;16.63;11.73;;;24.90;91.80;;;;;;4997832;28;20513;-82
2022/05/20 11:02:43;;;;;;;16.00;12.20;;;25.10;93.30;;;;;;5013465;28;20943;-82
2022/05/20 11:05:13;;;;;;;21.53;12.40;;;25.20;93.40;;;;;;5013875;28;20837;-81
2022/05/20 11:08:34;;;;;;;13.57;9.73;;;25.30;91.40;;;;;;5013308;28;20421;-81
2022/05/20 11:11:35;;;;;;;11.87;9.63;;;25.40;90.90;;;;;;4928769;28;20433;-82
2022/05/20 11:14:09;;;;;;;13.00;8.93;;;25.60;92.00;;;;;;5013710;28;20443;-81
2022/05/20 11:16:53;;;;;;;15.43;9.63;;;25.60;90.20;;;;;;4997359;28;20451;-81
2022/05/20 11:19:42;;;;;;;9.20;8.10;;;25.70;90.30;;;;;;4995701;28;20425;-81
2022/05/20 11:22:30;;;;;;;11.30;8.80;;;25.70;88.60;;;;;;4995610;28;20580;-81
2022/05/20 11:25:05;;;;;;;12.10;9.50;;;25.60;88.60;;;;;;4995676;28;20864;-82
2022/05/20 11:28:12;;;;;;;11.80;9.10;;;25.60;88.20;;;;;;4993296;28;20421;-80
2022/05/20 11:30:44;;;;;;;13.37;9.50;;;25.60;90.60;;;;;;4994925;28;20445;-81
2022/05/20 11:33:28;;;;;;;12.07;8.10;;;25.80;92.40;;;;;;4993923;28;20511;-81
2022/05/20 11:36:24;;;;;;;10.53;8.17;;;25.90;90.80;;;;;;4994537;28;20712;-81
2022/05/20 11:39:09;;;;;;;11.27;8.67;;;26.00;92.60;;;;;;4990919;28;20418;-82
2022/05/20 11:41:43;;;;;;;10.10;8.53;;;26.00;90.70;;;;;;4976628;28;20418;-83
2022/05/20 11:44:17;;;;;;;12.40;8.33;;;25.90;91.00;;;;;;4975919;28;20532;-82
2022/05/20 11:46:43;;;;;;;16.23;9.17;;;25.80;91.10;;;;;;4992327;28;20436;-81
2022/05/20 11:49:41;;;;;;;11.07;8.70;;;25.70;91.40;;;;;;4992447;28;20424;-83
2022/05/20 11:52:41;;;;;;;10.67;8.67;;;25.60;90.00;;;;;;4989323;28;20213;-83
2022/05/20 11:55:06;;;;;;;11.40;8.60;;;25.60;92.00;;;;;;4973323;28;20449;-83
2022/05/20 11:57:38;;;;;;;12.37;8.67;;;25.80;93.30;;;;;;4991395;28;20429;-82
2022/05/20 12:00:16;;;;;;;12.53;9.07;;;25.90;90.70;;;;;;4991761;28;20780;-84
2022/05/20 12:03:00;;;;;;;12.43;8.77;;;26.10;89.70;;;;;;4992516;28;20531;-83
2022/05/20 12:05:29;;;;;;;11.30;8.63;;;26.40;88.90;;;;;;4991867;28;20440;-83
2022/05/20 12:07:55;;;;;;;9.97;7.90;;;26.60;88.20;;;;;;4990865;28;20463;-83
2022/05/20 12:10:30;;;;;;;8.83;7.57;;;26.70;89.70;;;;;;4992275;28;20453;-82
2022/05/20 12:13:17;;;;;;;9.40;7.00;;;26.60;88.70;;;;;;4991504;28;20448;-83
2022/05/20 12:16:07;;;;;;;12.90;7.17;;;26.50;89.50;;;;;;4990008;28;20437;-83
2022/05/20 12:24:38;;;;;;;10.03;7.90;;;26.20;89.20;;;;;;4992183;28;20511;-83
2022/05/20 12:27:23;;;;;;;10.20;8.40;;;26.10;89.80;;;;;;4990812;28;20451;-83
2022/05/20 12:30:07;;;;;;;10.23;8.37;;;26.10;88.80;;;;;;5007149;28;20508;-83
2022/05/20 12:32:35;;;;;;;13.07;7.40;;;26.10;90.30;;;;;;4990907;28;20515;-81
2022/05/20 12:35:17;;;;;;;9.70;7.80;;;26.20;89.40;;;;;;4990433;28;20413;-82
2022/05/20 12:37:43;;;;;;;11.87;7.97;;;26.20;88.80;;;;;;4990269;28;20456;-83
2022/05/20 12:40:28;;;;;;;8.00;7.10;;;26.10;89.50;;;;;;4990230;28;20934;-83
2022/05/20 12:42:59;;;;;;;10.63;7.33;;;26.20;88.80;;;;;;4990808;28;20784;-83
2022/05/20 12:45:27;;;;;;;13.27;7.70;;;26.30;90.50;;;;;;4991626;28;20440;-83
2022/05/20 12:47:54;;;;;;;12.73;7.90;;;26.30;89.10;;;;;;4990454;28;20421;-83
2022/05/20 12:50:21;;;;;;;10.17;8.70;;;26.20;89.00;;;;;;4990677;28;20504;-85
2022/05/20 12:52:51;;;;;;;9.17;7.63;;;26.10;87.80;;;;;;4990683;28;20460;-82
2022/05/20 12:55:27;;;;;;;8.73;6.90;;;26.10;89.00;;;;;;4990907;28;20429;-85
2022/05/20 12:57:55;;;;;;;10.53;7.43;;;26.20;89.20;;;;;;4991776;28;20444;-84
2022/05/20 13:00:50;;;;;;;11.10;8.07;;;26.30;88.80;;;;;;4989871;28;20528;-85
2022/05/20 13:03:24;;;;;;;11.70;7.87;;;26.50;90.20;;;;;;4990350;28;20421;-85
2022/05/20 13:05:51;;;;;;;9.87;7.80;;;26.80;91.10;;;;;;4990123;28;20452;-85
2022/05/20 13:08:23;;;;;;;9.80;7.77;;;26.90;90.20;;;;;;4990181;28;20429;-85
2022/05/20 13:10:48;;;;;;;9.13;7.70;;;27.00;90.60;;;;;;4990418;28;20417;-84
2022/05/20 13:13:18;;;;;;;13.67;8.73;;;27.10;89.90;;;;;;4991321;28;20832;-85
2022/05/20 13:15:54;;;;;;;11.90;9.67;;;27.10;89.80;;;;;;4989925;28;20201;-86
2022/05/20 13:18:22;;;;;;;13.10;9.27;;;27.00;89.10;;;;;;4990023;28;20511;-85
2022/05/20 13:21:16;;;;;;;10.93;8.70;;;26.80;89.00;;;;;;4990251;28;20484;-84
2022/05/20 13:23:47;;;;;;;11.30;8.50;;;26.80;89.00;;;;;;4983093;28;20456;-85
2022/05/20 13:26:26;;;;;;;8.50;7.93;;;26.80;89.00;;;;;;4989424;28;20484;-85
2022/05/20 13:28:58;;;;;;;9.30;7.60;;;26.70;89.10;;;;;;4990055;28;20787;-85
2022/05/20 13:31:25;;;;;;;11.10;8.77;;;26.80;90.90;;;;;;4989578;28;20942;-84
2022/05/20 13:33:52;;;;;;;10.10;7.93;;;26.90;89.40;;;;;;4989661;28;20469;-85
2022/05/20 13:36:22;;;;;;;11.53;8.10;;;26.90;88.80;;;;;;4991066;28;20484;-85
2022/05/20 13:38:55;;;;;;;11.43;7.47;;;27.10;88.50;;;;;;4989055;28;20504;-85